메인 페이지
METAR-TAF:

METAR-TAF

공항 :

Greer, 사우스캐롤라이나, 미국

위도: 34-53-02N, 경도: 082-13-15W, 고도: 296m

현재 날씨관측

예보는 1 시간 5분 전, 06:53시(UTC)에 발표되었습니다.
무풍
온도 21°C
습도 88%
기압 1013 hPa
시정: 16.1km
고도 11000ft 상공 구름 보통

METAR: KGSP 250653Z AUTO 00000KT 10SM SCT110 21/19 A2992 RMK AO2 SLP120 T02060189

시각: 03:58 (07:58 UTC)

예보

예보는 2 시간 18분 전, 05:40시(UTC)에 발표되었습니다.
예보 대상 시간: 25일 06시부터 26일 06시까지 (UTC)
5kt
시정: 10km
고도 11000ft 상공 구름 보통
고도 25000ft 상공 구름 많음
25일 0900시부터 (UTC)
kt
시정: 10km
고도 14000ft 상공 구름 많음
25일 1500시부터 (UTC)
서남서6kt
시정: 10km
고도 4500ft 상공 구름 보통
25일 1800시부터 (UTC)
서남서7kt
시정: 10km
고도 5000ft 상공 구름 보통
확률 30%
25일 21시부터 25일 24시까지 (UTC)
시정: 6.4km
고도 2500ft 상공 흐림, 적란운.
뇌우, 비
26일 0000시부터 (UTC)
남서5kt
시정: 10km
고도 5000ft 상공 구름 보통
고도 25000ft 상공 구름 많음
26일 0400시부터 (UTC)
서남서4kt
시정: 10km
고도 25000ft 상공 구름 보통

TAF: KGSP 250540Z 2506/2606 01005KT P6SM SCT110 BKN250 FM250900 00000KT P6SM BKN140 FM251500 24006KT P6SM SCT045 FM251800 24007KT P6SM SCT050 PROB30 2521/2524 4SM TSRA OVC025CB FM260000 23005KT P6SM SCT050 BKN250 FM260400 25004KT P6SM SCT250

4,000개 이상의 공항 관측 자료 및 예보 (METAR 및 TAF 보고).

지도상에서 검색 가능한 기상관측소가 노란 점과 빨간 점으로 표시되어 있습니다.

기상관측소 명을 보려면 표시 위로 마우스를 이동하세요.

날씨 관측과 예보를 보려면 클릭하세요.

지도 변경 : 확대하려면 엑스 표시가 있는 녹색 버튼, 축소하려면 빼기 표시가 있는 녹색 버튼, 다음 페이지의 지도를 보려면 녹색 화살표를 클릭하세요.


METAR-TAF: